createdAt,value
2023-04-10T00:00:12.323Z,33.73
2023-04-10T00:05:13.842Z,41.60
2023-04-10T00:10:15.313Z,35.23
2023-04-10T00:15:16.756Z,32.47
2023-04-10T00:20:18.118Z,39.27
2023-04-10T00:25:19.635Z,37.30
2023-04-10T00:30:21.638Z,33.63
2023-04-10T00:35:23.044Z,36.47
2023-04-10T00:40:24.551Z,37.30
2023-04-10T00:45:26.418Z,35.77
2023-04-10T00:50:27.850Z,41.10
2023-04-10T00:55:29.276Z,36.47
2023-04-10T01:00:30.943Z,37.53
2023-04-10T01:05:35.313Z,33.57
2023-04-10T01:10:42.797Z,39.58
2023-04-10T01:15:48.014Z,36.60
2023-04-10T01:20:49.440Z,34.80
2023-04-10T01:25:56.529Z,34.93
2023-04-10T01:30:59.276Z,35.47
2023-04-10T01:36:03.052Z,37.83
2023-04-10T01:41:05.414Z,42.17
2023-04-10T01:46:07.282Z,33.83
2023-04-10T01:51:09.514Z,36.80
2023-04-10T01:56:10.983Z,40.10
2023-04-10T02:01:28.451Z,38.57
2023-04-10T02:06:34.404Z,36.97
2023-04-10T02:11:42.712Z,41.42
2023-04-10T02:16:44.599Z,37.07
2023-04-10T02:21:47.090Z,34.90
2023-04-10T02:26:49.452Z,35.23
2023-04-10T02:31:50.896Z,34.20
2023-04-10T02:36:52.611Z,36.00
2023-04-10T02:41:53.947Z,34.77
2023-04-10T02:46:55.702Z,38.17
2023-04-10T02:51:57.314Z,34.93
2023-04-10T02:56:58.703Z,39.43
2023-04-10T03:02:00.566Z,35.93
2023-04-10T03:07:02.049Z,42.97
2023-04-10T03:12:03.489Z,34.10
2023-04-10T03:17:04.893Z,37.77
2023-04-10T03:22:06.361Z,40.23
2023-04-10T03:27:07.768Z,34.30
2023-04-10T03:32:09.234Z,42.03
2023-04-10T03:37:10.654Z,34.57
2023-04-10T03:42:12.245Z,33.37
2023-04-10T03:47:13.683Z,38.80
2023-04-10T03:52:15.404Z,33.43
2023-04-10T03:57:18.700Z,33.87
2023-04-10T04:02:20.305Z,31.37
2023-04-10T04:07:21.729Z,37.57
2023-04-10T04:12:23.141Z,33.30
2023-04-10T04:17:24.558Z,34.93
2023-04-10T04:22:26.033Z,35.10
2023-04-10T04:27:27.476Z,35.10
2023-04-10T04:32:29.186Z,33.50
2023-04-10T04:37:30.648Z,31.47
2023-04-10T04:42:32.024Z,35.93
2023-04-10T04:47:33.500Z,32.40
2023-04-10T04:52:35.386Z,36.70
2023-04-10T04:57:36.816Z,35.43
2023-04-10T05:02:38.484Z,31.03
2023-04-10T05:07:40.508Z,35.27
2023-04-10T05:12:43.198Z,29.63
2023-04-10T05:17:44.712Z,32.00
2023-04-10T05:22:46.190Z,28.57
2023-04-10T05:27:47.542Z,30.17
2023-04-10T05:32:49.016Z,32.33
2023-04-10T05:37:50.404Z,31.70
2023-04-10T05:42:52.073Z,31.93
2023-04-10T05:47:53.527Z,28.20
2023-04-10T05:52:55.004Z,29.03
2023-04-10T05:57:56.515Z,26.70
2023-04-10T06:02:58.060Z,29.17
2023-04-10T06:07:59.518Z,35.47
2023-04-10T06:13:01.305Z,25.60
2023-04-10T06:18:02.929Z,28.38
2023-04-10T06:23:04.415Z,26.20
2023-04-10T06:28:05.953Z,28.25
2023-04-10T06:33:08.410Z,24.52
2023-04-10T06:38:09.871Z,23.73
2023-04-10T06:43:11.452Z,21.88
2023-04-10T06:48:13.084Z,26.25
2023-04-10T06:53:14.465Z,23.95
2023-04-10T06:58:16.420Z,45.65
2023-04-10T07:03:18.161Z,25.23
2023-04-10T07:08:19.624Z,25.05
2023-04-10T07:13:21.370Z,23.25
2023-04-10T07:18:22.767Z,22.52
2023-04-10T07:23:24.174Z,23.92
2023-04-10T07:28:25.988Z,22.00
2023-04-10T07:33:27.466Z,22.02
2023-04-10T07:38:29.148Z,21.65
2023-04-10T07:43:30.760Z,20.48
2023-04-10T07:48:32.180Z,21.10
2023-04-10T07:53:33.619Z,19.98
2023-04-10T07:58:35.997Z,19.88
2023-04-10T08:03:38.343Z,19.23
2023-04-10T08:08:40.434Z,18.40
2023-04-10T08:13:41.889Z,16.95
2023-04-10T08:18:43.320Z,18.60
2023-04-10T08:23:46.354Z,19.50
2023-04-10T08:28:51.995Z,17.42
2023-04-10T08:33:53.734Z,19.10
2023-04-10T08:38:55.469Z,15.05
2023-04-10T08:43:57.570Z,16.40
2023-04-10T08:49:02.057Z,15.68
2023-04-10T08:54:06.454Z,18.50
2023-04-10T09:04:11.727Z,14.80
2023-04-10T09:09:13.346Z,18.58
2023-04-10T09:14:22.090Z,13.90
2023-04-10T09:19:33.309Z,13.10
2023-04-10T09:24:42.379Z,12.68
2023-04-10T09:29:45.311Z,14.63
2023-04-10T09:34:58.515Z,12.68
2023-04-10T09:40:00.154Z,12.40
2023-04-10T09:45:01.905Z,10.63
2023-04-10T09:50:03.430Z,11.55
2023-04-10T09:55:06.022Z,11.30
2023-04-10T10:00:09.424Z,11.40
2023-04-10T10:05:11.118Z,15.38
2023-04-10T10:10:12.854Z,12.00
2023-04-10T10:15:18.112Z,11.70
2023-04-10T10:20:22.247Z,9.57
2023-04-10T10:25:23.907Z,8.90
2023-04-10T10:30:30.004Z,9.15
2023-04-10T10:35:32.664Z,9.82
2023-04-10T10:40:36.841Z,9.68
2023-04-10T10:45:42.761Z,10.35
2023-04-10T10:50:58.746Z,9.18
2023-04-10T10:56:19.629Z,9.30
2023-04-10T11:01:22.253Z,9.75
2023-04-10T11:06:44.686Z,12.63
2023-04-10T11:12:12.449Z,8.30
2023-04-10T11:17:26.817Z,10.90
2023-04-10T11:22:28.768Z,7.82
2023-04-10T11:27:48.457Z,9.18
2023-04-10T11:32:50.938Z,7.13
2023-04-10T11:37:52.972Z,9.75
2023-04-10T11:43:11.330Z,6.53
2023-04-10T11:48:12.748Z,8.35
2023-04-10T11:53:17.916Z,7.13
2023-04-10T11:58:26.661Z,7.88
2023-04-10T12:03:32.000Z,8.35
2023-04-10T12:08:34.130Z,7.75
2023-04-10T12:13:36.256Z,8.80
2023-04-10T12:18:37.788Z,8.50
2023-04-10T12:23:39.576Z,8.80
2023-04-10T12:28:41.966Z,7.13
2023-04-10T12:33:46.785Z,8.63
2023-04-10T12:38:48.227Z,8.95
2023-04-10T12:43:49.922Z,7.32
2023-04-10T12:48:51.330Z,7.43
2023-04-10T12:53:52.726Z,7.32
2023-04-10T12:59:06.416Z,7.13
2023-04-10T13:04:07.952Z,7.05
2023-04-10T13:09:09.487Z,5.80
2023-04-10T13:14:11.185Z,10.00
2023-04-10T13:19:12.947Z,6.55
2023-04-10T13:24:16.625Z,7.47
2023-04-10T13:29:18.394Z,6.63
2023-04-10T13:34:19.778Z,6.35
2023-04-10T13:39:21.416Z,6.05
2023-04-10T13:44:22.815Z,6.05
2023-04-10T13:49:24.277Z,6.47
2023-04-10T13:54:26.435Z,6.68
2023-04-10T13:59:27.807Z,6.40
2023-04-10T14:04:29.213Z,8.98
2023-04-10T14:09:30.671Z,5.88
2023-04-10T14:14:32.178Z,5.88
2023-04-10T14:19:34.108Z,7.75
2023-04-10T14:24:35.468Z,5.32
2023-04-10T14:29:42.582Z,6.30
2023-04-10T14:34:48.999Z,5.55
2023-04-10T14:39:50.518Z,5.68
2023-04-10T14:44:51.922Z,7.03
2023-04-10T14:49:53.352Z,5.47
2023-04-10T14:54:54.823Z,6.28
2023-04-10T14:59:56.465Z,5.00
2023-04-10T15:04:57.928Z,5.15
2023-04-10T15:09:59.682Z,4.72
2023-04-10T15:15:01.311Z,4.53
2023-04-10T15:20:04.925Z,7.85
2023-04-10T15:25:06.451Z,7.97
2023-04-10T15:30:08.011Z,4.65
2023-04-10T15:35:09.573Z,4.22
2023-04-10T15:40:11.367Z,5.35
2023-04-10T15:45:12.766Z,5.05
2023-04-10T15:50:14.244Z,5.82
2023-04-10T15:55:16.225Z,6.88
2023-04-10T16:00:17.819Z,6.07
2023-04-10T16:05:19.208Z,5.30
2023-04-10T16:10:21.170Z,6.47
2023-04-10T16:15:22.633Z,10.82
2023-04-10T16:20:24.151Z,6.20
2023-04-10T16:25:28.689Z,7.53
2023-04-10T16:30:30.324Z,7.93
2023-04-10T16:35:31.958Z,6.07
2023-04-10T16:40:33.475Z,8.68
2023-04-10T16:45:34.911Z,6.22
2023-04-10T16:50:36.410Z,9.10
2023-04-10T16:55:37.798Z,6.13
2023-04-10T17:00:39.246Z,5.82
2023-04-10T17:05:40.706Z,7.88
2023-04-10T17:10:42.138Z,6.82
2023-04-10T17:15:43.562Z,9.45
2023-04-10T17:20:47.755Z,8.38
2023-04-10T17:25:49.645Z,7.18
2023-04-10T17:30:51.118Z,7.57
2023-04-10T17:35:52.652Z,6.25
2023-04-10T17:40:54.199Z,5.88
2023-04-10T17:45:55.591Z,9.48
2023-04-10T17:50:57.833Z,5.80
2023-04-10T17:55:59.223Z,8.52
2023-04-10T18:01:00.607Z,8.63
2023-04-10T18:06:01.996Z,7.25
2023-04-10T18:11:03.522Z,6.80
2023-04-10T18:16:05.196Z,8.10
2023-04-10T18:21:07.139Z,7.65
2023-04-10T18:26:08.607Z,8.13
2023-04-10T18:31:10.162Z,7.30
2023-04-10T18:36:13.839Z,7.18
2023-04-10T18:41:15.451Z,7.10
2023-04-10T18:46:16.905Z,11.25
2023-04-10T18:51:20.390Z,9.57
2023-04-10T18:56:21.894Z,8.43
2023-04-10T19:01:23.398Z,9.40
2023-04-10T19:06:25.459Z,8.43
2023-04-10T19:11:26.953Z,6.53
2023-04-10T19:16:28.460Z,8.73
2023-04-10T19:21:29.888Z,8.57
2023-04-10T19:26:31.338Z,7.25
2023-04-10T19:31:32.799Z,8.30
2023-04-10T19:36:34.463Z,7.35
2023-04-10T19:41:37.222Z,6.07
2023-04-10T19:46:39.133Z,8.70
2023-04-10T19:51:41.058Z,8.73
2023-04-10T19:56:42.546Z,9.23
2023-04-10T20:01:44.063Z,8.65
2023-04-10T20:06:45.723Z,9.23
2023-04-10T20:11:47.181Z,8.82
2023-04-10T20:16:48.583Z,8.05
2023-04-10T20:21:50.059Z,8.05
2023-04-10T20:26:51.424Z,8.57
2023-04-10T20:31:52.873Z,7.85
2023-04-10T20:36:54.529Z,7.93
2023-04-10T20:41:57.009Z,8.23
2023-04-10T20:46:58.503Z,5.78
2023-04-10T20:51:59.950Z,6.07
2023-04-10T20:57:01.846Z,6.38
2023-04-10T21:02:03.552Z,7.05
2023-04-10T21:07:05.010Z,6.97
2023-04-10T21:12:06.490Z,7.95
2023-04-10T21:17:07.977Z,8.65
2023-04-10T21:22:10.278Z,7.70
2023-04-10T21:27:11.998Z,8.05
2023-04-10T21:32:13.523Z,7.45
2023-04-10T21:37:15.150Z,6.70
2023-04-10T21:42:18.413Z,6.43
2023-04-10T21:47:19.863Z,5.72
2023-04-10T21:52:21.217Z,7.43
2023-04-10T21:57:22.580Z,4.68
2023-04-10T22:02:24.030Z,5.80
2023-04-10T22:07:25.486Z,4.25
2023-04-10T22:12:26.874Z,7.15
2023-04-10T22:17:28.352Z,8.32
2023-04-10T22:22:29.855Z,7.68
2023-04-10T22:27:32.316Z,5.72
2023-04-10T22:32:33.815Z,6.75
2023-04-10T22:37:35.274Z,9.40
2023-04-10T22:42:36.630Z,7.45
2023-04-10T22:47:38.027Z,7.75
2023-04-10T22:52:39.480Z,8.55
2023-04-10T22:57:40.930Z,7.95
2023-04-10T23:02:42.470Z,6.93
2023-04-10T23:07:43.972Z,6.28
2023-04-10T23:12:45.580Z,5.65
2023-04-10T23:17:47.027Z,6.57
2023-04-10T23:22:48.448Z,6.57
2023-04-10T23:27:49.937Z,5.88
2023-04-10T23:32:51.344Z,4.53
2023-04-10T23:37:53.066Z,5.35
2023-04-10T23:42:54.452Z,4.90
2023-04-10T23:47:55.905Z,5.35
2023-04-10T23:52:59.332Z,6.18
2023-04-10T23:58:00.922Z,4.60
